Date,TemperatureHighF,TemperatureAvgF,TemperatureLowF,DewpointHighF,DewpointAvgF,DewpointLowF,HumidityHigh,HumidityAvg,HumidityLow,PressureMaxIn,PressureMinIn,WindSpeedMaxMPH,WindSpeedAvgMPH,GustSpeedMaxMPH,PrecipitationSumIn
2013-8-1,87,83,80,77,75,74,82,77,68,25.33,25.18,12,2,16,0.00
2013-8-2,87,80,74,78,74,70,94,83,70,25.27,25.13,11,0,24,0.51
2013-8-3,86,77,71,78,75,69,95,91,78,25.28,25.17,5,0,29,0.96
2013-8-4,90,81,75,79,76,73,95,85,68,25.24,25.16,8,0,20,0.02
2013-8-5,88,80,77,79,76,73,93,86,72,25.23,25.12,7,1,12,0.41
2013-8-6,88,82,76,79,76,73,95,83,72,25.21,25.05,6,0,11,0.00
2013-8-7,87,83,78,78,76,73,89,80,72,25.14,25.07,6,1,17,0.00
2013-8-8,88,85,82,78,76,73,82,76,66,25.19,25.07,11,1,19,0.00
2013-8-9,87,82,78,77,75,71,89,79,69,25.17,25.05,9,2,19,0.16
2013-8-10,89,84,81,78,77,75,84,78,70,25.19,25.05,10,2,17,0.00
2013-8-11,88,85,82,79,77,76,83,78,73,25.15,25.08,7,1,14,0.00
2013-8-12,88,84,81,78,76,74,85,78,69,25.16,25.05,7,1,16,0.11
2013-8-13,88,84,81,77,76,75,84,77,69,25.09,25.00,8,1,15,0.00
2013-8-14,89,84,81,78,76,75,84,76,69,25.13,24.98,10,1,16,0.00
2013-8-15,85,80,75,77,76,72,95,86,77,25.15,25.05,7,0,21,1.59
2013-8-16,88,84,79,80,78,76,92,83,75,25.14,25.06,10,1,14,0.00
2013-8-17,88,85,82,80,78,76,85,80,73,25.20,25.03,9,1,17,0.00
2013-8-18,88,84,81,79,77,75,85,80,74,25.17,25.06,8,1,21,0.08
2013-8-19,89,85,82,79,77,76,84,79,72,25.14,25.05,9,1,19,0.00
2013-8-20,88,84,81,78,77,74,84,78,68,25.10,24.94,13,1,16,0.00
2013-8-21,88,84,80,80,78,75,89,82,76,25.05,24.90,12,2,20,0.11
2013-8-22,88,84,78,80,77,74,92,81,74,25.03,24.95,11,1,16,0.13
2013-8-23,88,84,81,79,77,75,85,80,69,25.02,24.83,12,1,15,0.01
2013-8-24,88,84,77,78,76,72,91,78,70,25.07,24.92,8,1,15,0.09
2013-8-25,84,80,74,77,75,72,94,85,74,25.12,24.96,7,0,12,0.13
2013-8-26,87,81,75,77,74,71,91,82,72,25.09,24.95,7,1,17,0.07
2013-8-27,83,78,74,76,73,70,92,86,69,24.98,24.88,0,0,12,0.25
2013-8-28,86,81,76,76,75,72,92,81,68,24.99,24.88,6,1,13,0.01
2013-8-29,87,81,74,78,75,72,93,83,73,24.95,24.88,7,0,13,0.01
2013-8-30,88,83,76,78,75,72,93,78,60,24.96,24.81,7,1,16,0.00
2013-8-31,88,80,75,78,75,72,93,84,71,24.87,24.80,5,0,13,0.04